Time,TemperatureF,DewpointF,PressureIn,WindDirection,WindDirectionDegrees,WindSpeedMPH,WindSpeedGustMPH,Humidity,HourlyPrecipIn,Conditions,Clouds,dailyrainin,SoftwareType,DateUTC
2013-09-09 00:08:00,69.1,66.0,29.97,NE,51,0.0,0.0,90,0.00,,,0.00,weatherlink.com 1.10,2013-09-09 04:08:00,
2013-09-09 00:23:00,68.9,66.0,29.97,NE,51,0.0,0.0,91,0.00,,,0.00,weatherlink.com 1.10,2013-09-09 04:23:00,
2013-09-09 00:38:00,68.8,66.0,29.97,NE,51,0.0,0.0,91,0.00,,,0.00,weatherlink.com 1.10,2013-09-09 04:38:00,
2013-09-09 00:53:00,68.6,66.0,29.96,NE,51,0.0,0.0,91,0.00,,,0.00,weatherlink.com 1.10,2013-09-09 04:53:00,
2013-09-09 01:08:00,68.4,66.0,29.96,NE,51,0.0,0.0,92,0.00,,,0.00,weatherlink.com 1.10,2013-09-09 05:08:00,
2013-09-09 01:23:00,68.1,66.0,29.97,NE,51,0.0,0.0,92,0.00,,,0.00,weatherlink.com 1.10,2013-09-09 05:23:00,
2013-09-09 01:38:00,67.8,66.0,29.97,NE,51,0.0,0.0,92,0.00,,,0.00,weatherlink.com 1.10,2013-09-09 05:38:00,
2013-09-09 01:53:00,67.8,66.0,29.97,NE,51,0.0,0.0,92,0.00,,,0.00,weatherlink.com 1.10,2013-09-09 05:53:00,
2013-09-09 02:08:00,67.6,66.0,29.97,NE,51,0.0,0.0,93,0.00,,,0.00,weatherlink.com 1.10,2013-09-09 06:08:00,
2013-09-09 02:23:00,67.4,65.0,29.97,NE,51,0.0,0.0,93,0.00,,,0.00,weatherlink.com 1.10,2013-09-09 06:23:00,
2013-09-09 02:38:00,67.3,65.0,29.97,NE,51,0.0,0.0,93,0.00,,,0.00,weatherlink.com 1.10,2013-09-09 06:38:00,
2013-09-09 02:53:00,67.1,65.0,29.97,NE,51,0.0,0.0,94,0.00,,,0.00,weatherlink.com 1.10,2013-09-09 06:53:00,
2013-09-09 03:08:00,66.9,65.0,29.97,NE,51,0.0,0.0,94,0.00,,,0.00,weatherlink.com 1.10,2013-09-09 07:08:00,
2013-09-09 03:23:00,66.8,65.0,29.97,NE,51,0.0,0.0,94,0.00,,,0.00,weatherlink.com 1.10,2013-09-09 07:23:00,
2013-09-09 03:38:00,66.8,65.0,29.98,NE,51,0.0,0.0,94,0.00,,,0.00,weatherlink.com 1.10,2013-09-09 07:38:00,
2013-09-09 03:53:00,66.6,65.0,29.98,NE,51,0.0,0.0,95,0.00,,,0.00,weatherlink.com 1.10,2013-09-09 07:53:00,
2013-09-09 04:08:00,66.4,65.0,29.98,NE,51,0.0,0.0,95,0.00,,,0.00,weatherlink.com 1.10,2013-09-09 08:08:00,
2013-09-09 04:23:00,66.4,65.0,29.99,NE,51,0.0,0.0,95,0.00,,,0.00,weatherlink.com 1.10,2013-09-09 08:23:00,
2013-09-09 04:38:00,66.3,65.0,29.99,NE,51,0.0,0.0,95,0.00,,,0.00,weatherlink.com 1.10,2013-09-09 08:38:00,
2013-09-09 04:53:00,66.1,65.0,29.99,NE,51,0.0,0.0,95,0.00,,,0.00,weatherlink.com 1.10,2013-09-09 08:53:00,
2013-09-09 05:08:00,66.1,65.0,29.99,NE,51,0.0,0.0,96,0.00,,,0.00,weatherlink.com 1.10,2013-09-09 09:08:00,
2013-09-09 05:23:00,66.0,65.0,30.00,NE,51,0.0,0.0,96,0.00,,,0.00,weatherlink.com 1.10,2013-09-09 09:23:00,
2013-09-09 05:38:00,65.8,65.0,30.00,NE,51,0.0,0.0,96,0.00,,,0.00,weatherlink.com 1.10,2013-09-09 09:38:00,
2013-09-09 05:53:00,65.8,65.0,30.00,NE,51,0.0,0.0,96,0.00,,,0.00,weatherlink.com 1.10,2013-09-09 09:53:00,
2013-09-09 06:08:00,65.6,65.0,30.00,NE,51,0.0,0.0,96,0.00,,,0.00,weatherlink.com 1.10,2013-09-09 10:08:00,
2013-09-09 06:23:00,65.5,64.0,30.01,NE,51,0.0,0.0,96,0.00,,,0.00,weatherlink.com 1.10,2013-09-09 10:23:00,
2013-09-09 06:38:00,65.5,64.0,30.01,NE,51,0.0,0.0,96,0.00,,,0.00,weatherlink.com 1.10,2013-09-09 10:38:00,
2013-09-09 06:53:00,65.3,64.0,30.01,NE,51,0.0,0.0,96,0.00,,,0.00,weatherlink.com 1.10,2013-09-09 10:53:00,
2013-09-09 07:09:00,65.3,64.0,30.02,NE,51,0.0,0.0,96,0.00,,,0.00,weatherlink.com 1.10,2013-09-09 11:09:00,
2013-09-09 07:24:00,65.3,64.0,30.02,NE,51,0.0,0.0,96,0.00,,,0.00,weatherlink.com 1.10,2013-09-09 11:24:00,
2013-09-09 07:39:00,65.3,65.0,30.02,NE,51,0.0,0.0,97,0.00,,,0.00,weatherlink.com 1.10,2013-09-09 11:39:00,
2013-09-09 07:54:00,65.6,65.0,30.03,NE,51,0.0,0.0,97,0.00,,,0.00,weatherlink.com 1.10,2013-09-09 11:54:00,
2013-09-09 08:09:00,66.1,65.0,30.04,NE,51,0.0,0.0,97,0.00,,,0.00,weatherlink.com 1.10,2013-09-09 12:09:00,
2013-09-09 08:24:00,67.3,67.0,30.04,NE,51,0.0,0.0,98,0.00,,,0.00,weatherlink.com 1.10,2013-09-09 12:24:00,
2013-09-09 08:39:00,68.3,68.0,30.04,NE,51,0.0,0.0,99,0.00,,,0.00,weatherlink.com 1.10,2013-09-09 12:39:00,
2013-09-09 08:54:00,69.4,69.0,30.04,NE,51,0.0,0.0,99,0.00,,,0.00,weatherlink.com 1.10,2013-09-09 12:54:00,
2013-09-09 09:09:00,70.3,70.0,30.05,NE,51,0.0,0.0,98,0.00,,,0.00,weatherlink.com 1.10,2013-09-09 13:09:00,
2013-09-09 09:24:00,71.1,68.0,30.05,NE,51,0.0,0.0,91,0.00,,,0.00,weatherlink.com 1.10,2013-09-09 13:24:00,
2013-09-09 09:39:00,73.0,68.0,30.05,NE,51,0.0,0.0,84,0.00,,,0.00,weatherlink.com 1.10,2013-09-09 13:39:00,
2013-09-09 09:54:00,74.9,65.0,30.05,NE,51,0.0,0.0,72,0.00,,,0.00,weatherlink.com 1.10,2013-09-09 13:54:00,
2013-09-09 10:09:00,76.7,66.0,30.06,NE,51,0.0,0.0,70,0.00,,,0.00,weatherlink.com 1.10,2013-09-09 14:09:00,
2013-09-09 10:24:00,77.9,67.0,30.06,East,89,0.0,0.0,69,0.00,,,0.00,weatherlink.com 1.10,2013-09-09 14:24:00,
2013-09-09 10:39:00,78.5,67.0,30.07,SW,223,0.0,0.0,67,0.00,,,0.00,weatherlink.com 1.10,2013-09-09 14:39:00,
2013-09-09 10:54:00,79.8,65.0,30.07,ENE,66,0.0,2.0,61,0.00,,,0.00,weatherlink.com 1.10,2013-09-09 14:54:00,
2013-09-09 11:09:00,80.9,65.0,30.07,NE,45,0.0,2.0,58,0.00,,,0.00,weatherlink.com 1.10,2013-09-09 15:09:00,
2013-09-09 11:24:00,81.4,64.0,30.08,NNE,16,0.0,2.0,56,0.00,,,0.00,weatherlink.com 1.10,2013-09-09 15:24:00,
2013-09-09 11:39:00,81.8,63.0,30.08,ESE,118,0.0,3.0,53,0.00,,,0.00,weatherlink.com 1.10,2013-09-09 15:39:00,
2013-09-09 11:54:00,83.0,63.0,30.08,ESE,113,0.0,3.0,51,0.00,,,0.00,weatherlink.com 1.10,2013-09-09 15:54:00,
2013-09-09 12:09:00,83.2,63.0,30.08,ENE,57,0.0,3.0,50,0.00,,,0.00,weatherlink.com 1.10,2013-09-09 16:09:00,
2013-09-09 12:24:00,84.1,64.0,30.08,East,88,0.0,4.0,51,0.00,,,0.00,weatherlink.com 1.10,2013-09-09 16:24:00,
2013-09-09 12:39:00,84.5,64.0,30.08,North,360,0.0,2.0,51,0.00,,,0.00,weatherlink.com 1.10,2013-09-09 16:39:00,
2013-09-09 12:54:00,85.1,64.0,30.08,ENE,69,0.0,2.0,49,0.00,,,0.00,weatherlink.com 1.10,2013-09-09 16:54:00,
2013-09-09 13:09:00,85.7,63.0,30.08,ENE,59,1.0,5.0,46,0.00,,,0.00,weatherlink.com 1.10,2013-09-09 17:09:00,
2013-09-09 13:24:00,85.9,63.0,30.08,ENE,57,0.0,2.0,47,0.00,,,0.00,weatherlink.com 1.10,2013-09-09 17:24:00,
2013-09-09 13:39:00,86.3,62.0,30.07,NNW,337,0.0,4.0,44,0.00,,,0.00,weatherlink.com 1.10,2013-09-09 17:39:00,
2013-09-09 13:54:00,87.2,62.0,30.07,ENE,73,1.0,4.0,43,0.00,,,0.00,weatherlink.com 1.10,2013-09-09 17:54:00,
2013-09-09 14:09:00,87.2,62.0,30.07,NE,42,0.0,2.0,43,0.00,,,0.00,weatherlink.com 1.10,2013-09-09 18:09:00,
2013-09-09 14:24:00,87.0,63.0,30.07,ESE,111,2.0,4.0,45,0.00,,,0.00,weatherlink.com 1.10,2013-09-09 18:24:00,
2013-09-09 14:39:00,87.2,64.0,30.07,NW,311,0.0,3.0,46,0.00,,,0.00,weatherlink.com 1.10,2013-09-09 18:39:00,
2013-09-09 14:54:00,88.6,63.0,30.06,SW,215,0.0,3.0,43,0.00,,,0.00,weatherlink.com 1.10,2013-09-09 18:54:00,
2013-09-09 15:09:00,88.2,63.0,30.06,SSE,167,1.0,3.0,43,0.00,,,0.00,weatherlink.com 1.10,2013-09-09 19:09:00,
2013-09-09 15:24:00,88.0,63.0,30.05,SSE,163,0.0,3.0,44,0.00,,,0.00,weatherlink.com 1.10,2013-09-09 19:24:00,
2013-09-09 15:39:00,88.2,63.0,30.05,East,98,0.0,3.0,43,0.00,,,0.00,weatherlink.com 1.10,2013-09-09 19:39:00,
2013-09-09 15:54:00,87.6,63.0,30.06,ENE,63,0.0,3.0,44,0.00,,,0.00,weatherlink.com 1.10,2013-09-09 19:54:00,
2013-09-09 16:09:00,87.4,64.0,30.06,South,171,0.0,2.0,45,0.00,,,0.00,weatherlink.com 1.10,2013-09-09 20:09:00,
2013-09-09 16:25:00,86.3,64.0,30.05,South,171,1.0,2.0,47,0.00,,,0.00,weatherlink.com 1.10,2013-09-09 20:25:00,
2013-09-09 16:40:00,87.2,65.0,30.05,SSE,157,0.0,2.0,48,0.00,,,0.00,weatherlink.com 1.10,2013-09-09 20:40:00,
2013-09-09 16:55:00,87.0,64.0,30.05,SE,146,0.0,2.0,46,0.00,,,0.00,weatherlink.com 1.10,2013-09-09 20:55:00,
2013-09-09 17:10:00,86.5,63.0,30.05,SSW,198,0.0,3.0,45,0.00,,,0.00,weatherlink.com 1.10,2013-09-09 21:10:00,
2013-09-09 17:25:00,86.1,65.0,30.05,WNW,290,0.0,1.0,50,0.00,,,0.00,weatherlink.com 1.10,2013-09-09 21:25:00,
2013-09-09 17:40:00,85.9,65.0,30.05,SSE,155,0.0,2.0,49,0.00,,,0.00,weatherlink.com 1.10,2013-09-09 21:40:00,
2013-09-09 17:55:00,85.7,64.0,30.05,South,177,0.0,1.0,48,0.00,,,0.00,weatherlink.com 1.10,2013-09-09 21:55:00,
2013-09-09 18:10:00,85.3,64.0,30.05,South,177,0.0,1.0,49,0.00,,,0.00,weatherlink.com 1.10,2013-09-09 22:10:00,
2013-09-09 18:25:00,84.5,65.0,30.05,South,177,0.0,2.0,52,0.00,,,0.00,weatherlink.com 1.10,2013-09-09 22:25:00,
2013-09-09 18:40:00,83.8,66.0,30.05,South,177,0.0,0.0,55,0.00,,,0.00,weatherlink.com 1.10,2013-09-09 22:40:00,
2013-09-09 18:55:00,83.2,65.0,30.04,South,177,0.0,0.0,55,0.00,,,0.00,weatherlink.com 1.10,2013-09-09 22:55:00,
2013-09-09 19:10:00,82.2,65.0,30.05,South,177,0.0,0.0,57,0.00,,,0.00,weatherlink.com 1.10,2013-09-09 23:10:00,
2013-09-09 19:25:00,81.2,66.0,30.05,South,177,0.0,0.0,61,0.00,,,0.00,weatherlink.com 1.10,2013-09-09 23:25:00,
2013-09-09 19:40:00,80.1,66.0,30.05,South,177,0.0,0.0,63,0.00,,,0.00,weatherlink.com 1.10,2013-09-09 23:40:00,
2013-09-09 19:55:00,78.8,67.0,30.05,South,177,0.0,0.0,67,0.00,,,0.00,weatherlink.com 1.10,2013-09-09 23:55:00,
2013-09-09 20:10:00,77.9,67.0,30.06,South,177,0.0,0.0,69,0.00,,,0.00,weatherlink.com 1.10,2013-09-10 00:10:00,
2013-09-09 20:25:00,77.0,67.0,30.06,South,177,0.0,0.0,71,0.00,,,0.00,weatherlink.com 1.10,2013-09-10 00:25:00,
2013-09-09 20:40:00,76.1,67.0,30.06,South,177,0.0,0.0,74,0.00,,,0.00,weatherlink.com 1.10,2013-09-10 00:40:00,
2013-09-09 20:55:00,75.1,67.0,30.07,South,177,0.0,0.0,75,0.00,,,0.00,weatherlink.com 1.10,2013-09-10 00:55:00,
2013-09-09 21:10:00,74.4,67.0,30.07,South,177,0.0,0.0,77,0.00,,,0.00,weatherlink.com 1.10,2013-09-10 01:10:00,
2013-09-09 21:25:00,73.7,67.0,30.07,South,177,0.0,0.0,79,0.00,,,0.00,weatherlink.com 1.10,2013-09-10 01:25:00,
2013-09-09 21:40:00,73.2,67.0,30.08,South,177,0.0,0.0,80,0.00,,,0.00,weatherlink.com 1.10,2013-09-10 01:40:00,
2013-09-09 21:55:00,72.7,67.0,30.08,South,177,0.0,0.0,82,0.00,,,0.00,weatherlink.com 1.10,2013-09-10 01:55:00,
2013-09-09 22:10:00,72.1,66.0,30.08,South,177,0.0,0.0,82,0.00,,,0.00,weatherlink.com 1.10,2013-09-10 02:10:00,
2013-09-09 22:25:00,71.8,67.0,30.08,South,177,0.0,0.0,84,0.00,,,0.00,weatherlink.com 1.10,2013-09-10 02:25:00,
2013-09-09 22:40:00,71.3,67.0,30.09,South,177,0.0,0.0,85,0.00,,,0.00,weatherlink.com 1.10,2013-09-10 02:40:00,
2013-09-09 22:55:00,71.1,67.0,30.09,South,177,0.0,0.0,86,0.00,,,0.00,weatherlink.com 1.10,2013-09-10 02:55:00,
2013-09-09 23:10:00,70.8,67.0,30.10,South,177,0.0,0.0,87,0.00,,,0.00,weatherlink.com 1.10,2013-09-10 03:10:00,
2013-09-09 23:25:00,70.6,67.0,30.10,South,177,0.0,0.0,88,0.00,,,0.00,weatherlink.com 1.10,2013-09-10 03:25:00,
2013-09-09 23:40:00,70.3,67.0,30.11,South,177,0.0,0.0,88,0.00,,,0.00,weatherlink.com 1.10,2013-09-10 03:40:00,
2013-09-09 23:55:00,70.3,67.0,30.11,South,177,0.0,0.0,88,0.00,,,0.00,weatherlink.com 1.10,2013-09-10 03:55:00,